Time;durP1;ratioP1;P1;durP2;ratioP2;P2;SDS_P1;SDS_P2;PMS_P1;PMS_P2;Temp;Humidity;BMP_temperature;BMP_pressure;BME280_temperature;BME280_humidity;BME280_pressure;Samples;Min_cycle;Max_cycle;Signal;HPM_P1;HPM_P2
2023/10/27 00:00:47;;;;;;;0.10;0.10;;;16.60;99.90;;;;;;4977949;28;20019;-77
2023/10/27 00:03:13;;;;;;;0.10;0.10;;;16.50;99.90;;;;;;4977944;28;20120;-78
2023/10/27 00:05:38;;;;;;;0.10;0.10;;;16.50;99.90;;;;;;4978123;28;20045;-77
2023/10/27 00:08:04;;;;;;;0.10;0.10;;;16.40;99.90;;;;;;4977983;28;20105;-77
2023/10/27 00:10:30;;;;;;;0.10;0.10;;;16.30;99.90;;;;;;4978071;28;20212;-78
2023/10/27 00:12:56;;;;;;;0.10;0.10;;;16.20;99.90;;;;;;4977871;28;20026;-77
2023/10/27 00:15:22;;;;;;;0.10;0.10;;;16.20;99.90;;;;;;4977943;28;20501;-76
2023/10/27 00:17:48;;;;;;;0.10;0.10;;;16.20;99.90;;;;;;4977847;28;20324;-77
2023/10/27 00:20:15;;;;;;;0.30;0.30;;;12.80;99.90;;;;;;4977776;28;20037;-77
2023/10/27 00:22:41;;;;;;;0.10;0.10;;;16.10;99.90;;;;;;4977460;28;20023;-78
2023/10/27 00:25:07;;;;;;;0.10;0.10;;;16.20;99.90;;;;;;4977605;28;20022;-78
2023/10/27 00:27:33;;;;;;;0.10;0.10;;;16.20;99.90;;;;;;4977405;28;20030;-77
2023/10/27 00:29:58;;;;;;;1.15;1.15;;;16.20;99.90;;;;;;4977473;28;20026;-77
2023/10/27 00:32:24;;;;;;;0.10;0.10;;;16.10;99.90;;;;;;4977413;28;20732;-77
2023/10/27 00:34:50;;;;;;;0.10;0.10;;;16.40;99.90;;;;;;4977451;28;20022;-77
2023/10/27 00:37:16;;;;;;;0.10;0.10;;;16.40;99.90;;;;;;4977483;28;20023;-77
2023/10/27 00:39:41;;;;;;;0.10;0.10;;;16.30;99.90;;;;;;4977675;28;20019;-77
2023/10/27 00:42:07;;;;;;;0.10;0.10;;;16.30;99.90;;;;;;4977269;28;20042;-89
2023/10/27 00:44:35;;;;;;;0.43;0.43;;;16.20;99.90;;;;;;4976555;28;20334;-76
2023/10/27 00:47:01;;;;;;;0.10;0.10;;;16.40;99.90;;;;;;4978098;28;20026;-76
2023/10/27 00:49:28;;;;;;;0.10;0.10;;;16.40;99.90;;;;;;4977882;28;20018;-77
2023/10/27 00:51:54;;;;;;;0.10;0.10;;;16.40;99.90;;;;;;4977724;28;20243;-74
2023/10/27 00:54:21;;;;;;;0.10;0.10;;;16.20;99.90;;;;;;4977698;28;20336;-76
2023/10/27 00:56:49;;;;;;;2.50;2.38;;;16.10;99.90;;;;;;4977371;28;20429;-75
2023/10/27 00:59:15;;;;;;;0.17;0.17;;;16.20;99.90;;;;;;4976733;28;20054;-77
2023/10/27 01:01:43;;;;;;;0.10;0.10;;;16.00;99.90;;;;;;4981431;28;20129;-75
2023/10/27 01:04:08;;;;;;;0.10;0.10;;;15.90;99.90;;;;;;4981401;28;20045;-74
2023/10/27 01:06:35;;;;;;;0.10;0.10;;;15.90;99.90;;;;;;4981279;28;20553;-75
2023/10/27 01:09:01;;;;;;;1.50;1.40;;;15.90;99.90;;;;;;4981356;28;20556;-75
2023/10/27 01:11:27;;;;;;;0.10;0.10;;;;;;;;;;4981245;28;20042;-75
2023/10/27 01:13:54;;;;;;;0.10;0.10;;;16.30;99.90;;;;;;4981201;28;20494;-75
2023/10/27 01:16:21;;;;;;;0.10;0.10;;;16.70;99.90;;;;;;4979794;28;20026;-75
2023/10/27 01:18:47;;;;;;;0.10;0.10;;;16.90;99.90;;;;;;4981330;28;20211;-76
2023/10/27 01:21:13;;;;;;;0.10;0.10;;;16.90;99.90;;;;;;4981237;28;20026;-75
2023/10/27 01:23:39;;;;;;;0.10;0.10;;;16.90;99.90;;;;;;4981044;28;20042;-75
2023/10/27 01:26:05;;;;;;;0.10;0.10;;;16.90;99.90;;;;;;4981352;28;20026;-76
2023/10/27 01:28:31;;;;;;;0.10;0.10;;;17.00;99.90;;;;;;4980846;28;20023;-75
2023/10/27 01:30:58;;;;;;;0.10;0.10;;;17.20;99.90;;;;;;4980866;28;20509;-75
2023/10/27 01:33:24;;;;;;;0.10;0.10;;;17.30;99.90;;;;;;4981103;28;20029;-77
2023/10/27 01:35:52;;;;;;;0.10;0.10;;;17.50;99.90;;;;;;4981101;28;20023;-76
2023/10/27 01:38:17;;;;;;;0.10;0.10;;;17.50;99.90;;;;;;4981322;28;20026;-77
2023/10/27 01:40:43;;;;;;;0.10;0.10;;;17.50;99.90;;;;;;4980949;28;20028;-76
2023/10/27 01:43:09;;;;;;;0.10;0.10;;;17.40;99.90;;;;;;4980715;28;20545;-77
2023/10/27 01:45:35;;;;;;;0.10;0.10;;;17.50;99.90;;;;;;4980716;28;20327;-75
2023/10/27 01:48:01;;;;;;;0.10;0.10;;;17.50;99.90;;;;;;4980605;28;20030;-76
2023/10/27 01:50:26;;;;;;;0.85;0.85;;;17.60;99.90;;;;;;4980489;28;20022;-76
2023/10/27 01:52:52;;;;;;;0.08;0.08;;;17.70;99.90;;;;;;4980479;28;20046;-77
2023/10/27 01:55:18;;;;;;;0.10;0.10;;;17.80;99.90;;;;;;4980569;28;20744;-75
2023/10/27 01:57:44;;;;;;;0.10;0.10;;;17.80;99.90;;;;;;4980299;28;20101;-75
2023/10/27 02:00:12;;;;;;;0.20;0.20;;;17.70;99.90;;;;;;4980541;28;20018;-77
2023/10/27 02:02:38;;;;;;;0.15;0.15;;;17.80;99.90;;;;;;4980114;28;20014;-74
2023/10/27 02:05:04;;;;;;;0.10;0.10;;;17.80;99.90;;;;;;4980401;28;20053;-74
2023/10/27 02:07:30;;;;;;;0.10;0.10;;;17.80;99.90;;;;;;4980236;28;20031;-75
2023/10/27 02:09:59;;;;;;;0.10;0.10;;;17.90;99.90;;;;;;4980358;28;20381;-75
2023/10/27 02:12:26;;;;;;;0.10;0.10;;;18.00;99.90;;;;;;4979384;28;20038;-75
2023/10/27 02:14:52;;;;;;;0.10;0.10;;;18.00;99.90;;;;;;4980260;28;20018;-74
2023/10/27 02:17:21;;;;;;;0.17;0.17;;;17.90;99.90;;;;;;4980116;28;20027;-74
2023/10/27 02:19:50;;;;;;;0.10;0.10;;;18.00;99.90;;;;;;4980235;28;20096;-74
2023/10/27 02:22:17;;;;;;;0.10;0.10;;;18.00;99.90;;;;;;4979856;28;20030;-74
2023/10/27 02:24:44;;;;;;;0.10;0.10;;;18.00;99.90;;;;;;4980160;28;20061;-75
2023/10/27 02:27:10;;;;;;;0.10;0.10;;;18.10;99.90;;;;;;4979954;28;20072;-75
2023/10/27 02:29:35;;;;;;;0.08;0.08;;;18.10;99.90;;;;;;4980033;28;20026;-75
2023/10/27 02:32:01;;;;;;;0.10;0.10;;;18.10;99.90;;;;;;4979838;28;20485;-74
2023/10/27 02:34:27;;;;;;;0.30;0.30;;;18.10;99.90;;;;;;4979697;28;20037;-74
2023/10/27 02:36:53;;;;;;;0.10;0.10;;;18.00;99.90;;;;;;4979625;28;20320;-74
2023/10/27 02:39:19;;;;;;;1.40;0.82;;;18.00;99.90;;;;;;4979562;28;20113;-74
2023/10/27 02:41:45;;;;;;;0.10;0.10;;;18.00;99.90;;;;;;4979378;28;20445;-75
2023/10/27 02:44:11;;;;;;;0.10;0.10;;;18.10;99.90;;;;;;4979406;28;20023;-75
2023/10/27 02:46:36;;;;;;;0.10;0.10;;;18.00;99.90;;;;;;4979368;28;20104;-74
2023/10/27 02:49:03;;;;;;;0.10;0.10;;;18.10;99.90;;;;;;4979284;28;20022;-75
2023/10/27 02:51:29;;;;;;;0.10;0.10;;;18.10;99.90;;;;;;4979188;28;20037;-76
2023/10/27 02:53:55;;;;;;;0.10;0.10;;;18.20;99.90;;;;;;4978938;28;20031;-80
2023/10/27 02:56:22;;;;;;;0.10;0.10;;;18.90;99.90;;;;;;4979293;28;20025;-76
2023/10/27 02:58:47;;;;;;;0.10;0.10;;;18.30;99.90;;;;;;4979147;28;20061;-76
2023/10/27 03:01:16;;;;;;;0.10;0.10;;;18.40;99.90;;;;;;4979111;28;20058;-76
2023/10/27 03:03:43;;;;;;;0.10;0.10;;;18.40;99.90;;;;;;4979258;28;20311;-77
2023/10/27 03:06:10;;;;;;;0.05;0.05;;;18.30;99.90;;;;;;4979286;28;20034;-76
2023/10/27 03:08:37;;;;;;;0.10;0.10;;;19.80;99.90;;;;;;4979182;28;20030;-76
2023/10/27 03:11:02;;;;;;;0.10;0.10;;;18.40;99.90;;;;;;4979047;28;20038;-75
2023/10/27 03:13:29;;;;;;;0.10;0.10;;;18.40;99.90;;;;;;4979009;28;20125;-75
2023/10/27 03:15:54;;;;;;;0.10;0.10;;;18.40;99.90;;;;;;4979055;28;20566;-76
2023/10/27 03:18:20;;;;;;;0.10;0.10;;;18.50;99.90;;;;;;4979113;28;20149;-77
2023/10/27 03:20:53;;;;;;;0.10;0.10;;;18.50;99.90;;;;;;4978782;28;20699;-76
2023/10/27 03:23:19;;;;;;;0.05;0.05;;;18.50;99.90;;;;;;4978935;28;20073;-76
2023/10/27 03:25:45;;;;;;;0.10;0.10;;;18.60;99.90;;;;;;4978779;28;20029;-76
2023/10/27 03:28:11;;;;;;;0.10;0.10;;;18.50;99.90;;;;;;4978723;28;20097;-76
2023/10/27 03:30:37;;;;;;;0.10;0.10;;;18.60;99.90;;;;;;4978722;28;20030;-75
2023/10/27 03:33:03;;;;;;;0.10;0.10;;;18.50;99.90;;;;;;4978704;28;20061;-77
2023/10/27 03:35:28;;;;;;;0.10;0.10;;;18.50;99.90;;;;;;4978730;28;20501;-76
2023/10/27 03:37:54;;;;;;;0.10;0.10;;;18.50;99.90;;;;;;4978513;28;20050;-76
2023/10/27 03:40:20;;;;;;;0.10;0.10;;;18.50;99.90;;;;;;4978410;28;20449;-76
2023/10/27 03:42:46;;;;;;;0.10;0.10;;;18.50;99.90;;;;;;4978464;28;20566;-76
2023/10/27 03:45:11;;;;;;;0.10;0.10;;;18.60;99.90;;;;;;4978388;28;20521;-76
2023/10/27 03:47:37;;;;;;;0.10;0.10;;;18.60;99.90;;;;;;4978717;28;20026;-76
2023/10/27 03:50:04;;;;;;;0.10;0.10;;;18.70;99.90;;;;;;4978519;28;20026;-77
2023/10/27 03:52:29;;;;;;;0.10;0.10;;;18.70;99.90;;;;;;4978608;28;20389;-77
2023/10/27 03:54:56;;;;;;;0.17;0.17;;;18.70;99.90;;;;;;4978527;28;20093;-75
2023/10/27 03:57:22;;;;;;;0.10;0.10;;;18.60;99.90;;;;;;4978453;28;20498;-81
2023/10/27 03:59:47;;;;;;;0.20;0.20;;;18.50;99.90;;;;;;4978313;28;20022;-76
2023/10/27 04:02:15;;;;;;;0.10;0.10;;;18.60;99.90;;;;;;4977212;28;20038;-75
2023/10/27 04:04:42;;;;;;;0.10;0.10;;;18.50;99.90;;;;;;4978363;28;20509;-75
2023/10/27 04:07:07;;;;;;;0.10;0.10;;;18.70;99.90;;;;;;4978930;28;20105;-85
2023/10/27 04:09:33;;;;;;;0.10;0.10;;;19.80;99.90;;;;;;4978938;28;20162;-80
2023/10/27 04:11:59;;;;;;;0.10;0.10;;;18.70;99.90;;;;;;4978680;28;20061;-75
2023/10/27 04:14:25;;;;;;;0.10;0.10;;;18.60;99.90;;;;;;4978495;28;20112;-75
2023/10/27 04:16:51;;;;;;;0.10;0.10;;;18.70;99.90;;;;;;4978797;28;20022;-77
2023/10/27 04:19:16;;;;;;;0.10;0.10;;;18.70;99.90;;;;;;4978890;28;20218;-76
2023/10/27 04:21:42;;;;;;;0.13;0.13;;;18.60;99.90;;;;;;4978636;28;20121;-76
2023/10/27 04:24:09;;;;;;;0.10;0.10;;;18.70;99.90;;;;;;4977024;28;20036;-75
2023/10/27 04:26:36;;;;;;;0.10;0.10;;;18.60;99.90;;;;;;4978612;28;20022;-75
2023/10/27 04:29:02;;;;;;;0.10;0.10;;;18.60;99.90;;;;;;4978406;28;20049;-75
2023/10/27 04:31:27;;;;;;;0.10;0.10;;;18.70;99.90;;;;;;4978179;28;20682;-76
2023/10/27 04:33:56;;;;;;;0.10;0.10;;;18.80;99.90;;;;;;4977928;28;20397;-75
2023/10/27 04:36:21;;;;;;;0.10;0.10;;;18.80;99.90;;;;;;4977974;28;20231;-76
2023/10/27 04:38:47;;;;;;;0.10;0.10;;;18.80;99.90;;;;;;4978408;28;20022;-76
2023/10/27 04:41:14;;;;;;;0.10;0.10;;;18.80;99.90;;;;;;4978087;28;20493;-76
2023/10/27 04:43:39;;;;;;;0.10;0.10;;;18.70;99.90;;;;;;4978197;28;20276;-87
2023/10/27 04:46:05;;;;;;;0.10;0.10;;;18.80;99.90;;;;;;4978685;28;20390;-75
2023/10/27 04:48:31;;;;;;;0.10;0.10;;;19.00;99.90;;;;;;4978431;28;20026;-74
2023/10/27 04:50:58;;;;;;;0.10;0.10;;;;;;;;;;4978254;28;20053;-74
2023/10/27 04:53:25;;;;;;;0.10;0.10;;;18.90;99.90;;;;;;4978101;28;20035;-75
2023/10/27 04:55:50;;;;;;;0.10;0.10;;;18.90;99.90;;;;;;4978245;28;20407;-75
2023/10/27 04:58:17;;;;;;;0.10;0.10;;;18.80;99.90;;;;;;4977947;28;20102;-89
2023/10/27 05:00:43;;;;;;;0.10;0.10;;;18.70;99.90;;;;;;4977396;28;20105;-75
2023/10/27 05:03:09;;;;;;;0.10;0.10;;;18.80;99.90;;;;;;4977415;28;20611;-74
2023/10/27 05:05:35;;;;;;;0.10;0.10;;;18.80;99.90;;;;;;4977935;28;20018;-87
2023/10/27 05:08:01;;;;;;;0.10;0.10;;;18.80;99.90;;;;;;4978517;28;20233;-75
2023/10/27 05:10:27;;;;;;;0.08;0.08;;;18.70;99.90;;;;;;4977697;28;20308;-74
2023/10/27 05:12:53;;;;;;;0.10;0.10;;;18.70;99.90;;;;;;4977464;28;20022;-75
2023/10/27 05:15:19;;;;;;;0.10;0.10;;;17.60;99.90;;;;;;4977564;28;20681;-76
2023/10/27 05:17:46;;;;;;;0.10;0.10;;;18.60;99.90;;;;;;4977341;28;20025;-77
2023/10/27 05:20:12;;;;;;;0.10;0.10;;;18.60;99.90;;;;;;4977901;28;20474;-82
2023/10/27 05:22:38;;;;;;;0.10;0.10;;;18.60;99.90;;;;;;4978529;28;20030;-75
2023/10/27 05:25:06;;;;;;;0.10;0.10;;;18.60;99.90;;;;;;4977209;28;20042;-86
2023/10/27 05:27:33;;;;;;;0.10;0.10;;;18.60;99.90;;;;;;4978243;28;20093;-78
2023/10/27 05:29:59;;;;;;;0.10;0.10;;;18.60;99.90;;;;;;4978563;28;20014;-77
2023/10/27 05:32:25;;;;;;;0.10;0.10;;;18.70;99.90;;;;;;4977806;28;20038;-89
2023/10/27 05:34:51;;;;;;;0.10;0.10;;;18.70;99.90;;;;;;4977859;28;20667;-75
2023/10/27 05:37:17;;;;;;;0.10;0.10;;;18.70;99.90;;;;;;4977754;28;20072;-77
2023/10/27 05:39:43;;;;;;;0.10;0.10;;;18.70;99.90;;;;;;4977522;28;20525;-75
2023/10/27 05:42:08;;;;;;;0.10;0.10;;;18.70;99.90;;;;;;4977595;28;20125;-75
2023/10/27 05:44:34;;;;;;;0.10;0.10;;;18.60;99.90;;;;;;4977830;28;20026;-86
2023/10/27 05:47:01;;;;;;;0.10;0.10;;;18.60;99.90;;;;;;4979491;28;20056;-74
2023/10/27 05:49:27;;;;;;;0.10;0.10;;;18.60;99.90;;;;;;4980978;28;20481;-76
2023/10/27 05:51:53;;;;;;;0.10;0.10;;;18.60;99.90;;;;;;4981150;28;20046;-75
2023/10/27 05:54:19;;;;;;;0.10;0.10;;;18.50;99.90;;;;;;4981241;28;20262;-77
2023/10/27 05:56:45;;;;;;;1.38;1.38;;;18.50;99.90;;;;;;4980858;28;20720;-75
2023/10/27 05:59:11;;;;;;;0.30;0.30;;;18.50;99.90;;;;;;4981388;28;20030;-89
2023/10/27 06:01:36;;;;;;;0.10;0.10;;;19.80;99.90;;;;;;4982505;28;20440;-74
2023/10/27 06:04:03;;;;;;;0.10;0.10;;;18.40;99.90;;;;;;4983285;28;20019;-76
2023/10/27 06:06:28;;;;;;;0.10;0.10;;;18.40;99.90;;;;;;4986082;28;20028;-75
2023/10/27 06:08:55;;;;;;;0.10;0.10;;;18.40;99.90;;;;;;4983673;28;20093;-81
2023/10/27 06:11:20;;;;;;;0.10;0.10;;;18.40;99.90;;;;;;4981273;28;20054;-75
2023/10/27 06:13:46;;;;;;;0.10;0.10;;;18.40;99.90;;;;;;4980855;28;20073;-83
2023/10/27 06:16:12;;;;;;;0.10;0.10;;;18.40;99.90;;;;;;4981902;28;20019;-77
2023/10/27 06:18:38;;;;;;;0.10;0.10;;;18.40;99.90;;;;;;4981424;28;20318;-84
2023/10/27 06:21:04;;;;;;;0.10;0.10;;;18.40;99.90;;;;;;4983765;28;20105;-78
2023/10/27 06:23:31;;;;;;;0.10;0.10;;;18.40;99.90;;;;;;4985257;28;20125;-91
2023/10/27 06:25:57;;;;;;;0.10;0.10;;;18.30;99.90;;;;;;4987453;28;20604;-74
2023/10/27 06:28:23;;;;;;;0.10;0.10;;;18.20;99.90;;;;;;4986882;28;20497;-79
2023/10/27 06:30:48;;;;;;;0.10;0.10;;;18.20;99.90;;;;;;4985953;28;20260;-79
2023/10/27 06:33:14;;;;;;;0.10;0.10;;;18.20;99.90;;;;;;4985700;28;20501;-79
2023/10/27 06:35:40;;;;;;;0.22;0.22;;;18.00;99.90;;;;;;4981983;28;20019;-83
2023/10/27 06:38:06;;;;;;;2.03;1.85;;;18.00;99.90;;;;;;4982125;28;20441;-81
2023/10/27 06:40:32;;;;;;;0.10;0.10;;;17.90;99.90;;;;;;4981134;28;20073;-74
2023/10/27 06:42:58;;;;;;;0.10;0.10;;;17.90;99.90;;;;;;4981337;28;20046;-76
2023/10/27 06:45:24;;;;;;;0.10;0.10;;;18.00;99.90;;;;;;4981482;28;20022;-74
2023/10/27 06:47:50;;;;;;;0.10;0.10;;;18.10;99.90;;;;;;4981114;28;20596;-79
2023/10/27 06:50:16;;;;;;;0.10;0.10;;;18.10;99.90;;;;;;4980151;28;20335;-75
2023/10/27 06:52:41;;;;;;;0.10;0.10;;;18.10;99.90;;;;;;4979090;28;20129;-76
2023/10/27 06:55:08;;;;;;;0.10;0.10;;;18.20;99.90;;;;;;4980979;28;20027;-76
2023/10/27 06:57:34;;;;;;;6.40;3.15;;;18.30;99.90;;;;;;4980502;28;20018;-75
2023/10/27 07:00:00;;;;;;;0.10;0.10;;;18.40;99.90;;;;;;4980600;28;20583;-78
2023/10/27 07:02:26;;;;;;;0.10;0.10;;;;;;;;;;4978713;28;20065;-75
2023/10/27 07:04:52;;;;;;;0.10;0.10;;;18.50;99.90;;;;;;4980515;28;20057;-82
2023/10/27 07:07:18;;;;;;;0.10;0.10;;;18.50;99.90;;;;;;4980281;28;20258;-76
2023/10/27 07:09:44;;;;;;;0.10;0.10;;;18.60;99.90;;;;;;4979578;28;20613;-82
2023/10/27 07:12:10;;;;;;;0.10;0.10;;;18.60;99.90;;;;;;4979781;28;20117;-80
2023/10/27 07:14:37;;;;;;;0.10;0.10;;;18.70;99.90;;;;;;4977918;28;20022;-80
2023/10/27 07:17:03;;;;;;;0.10;0.10;;;18.70;99.90;;;;;;4979525;28;20540;-80
2023/10/27 07:19:33;;;;;;;0.20;0.20;;;18.80;99.90;;;;;;4979595;28;20023;-78
2023/10/27 07:22:00;;;;;;;0.10;0.10;;;18.90;99.90;;;;;;4979321;28;20026;-75
2023/10/27 07:24:28;;;;;;;0.10;0.10;;;19.00;99.90;;;;;;4979401;28;20065;-83
2023/10/27 07:26:53;;;;;;;0.10;0.10;;;18.00;99.90;;;;;;4979327;28;20022;-80
2023/10/27 07:29:19;;;;;;;0.10;0.10;;;19.20;99.90;;;;;;4980227;28;20033;-75
2023/10/27 07:31:45;;;;;;;0.10;0.10;;;19.20;99.90;;;;;;4979307;28;20433;-85
2023/10/27 07:34:11;;;;;;;0.10;0.10;;;19.20;99.90;;;;;;4979839;28;20022;-78
2023/10/27 07:36:36;;;;;;;0.10;0.10;;;19.20;99.90;;;;;;4979768;28;20505;-84
2023/10/27 07:39:02;;;;;;;0.10;0.10;;;19.20;99.90;;;;;;4980093;28;20036;-78
2023/10/27 07:41:28;;;;;;;0.10;0.10;;;19.10;99.90;;;;;;4980442;28;20050;-79
2023/10/27 07:43:54;;;;;;;0.10;0.10;;;19.10;99.90;;;;;;4980260;28;20026;-79
2023/10/27 07:46:20;;;;;;;0.10;0.10;;;;;;;;;;4980268;28;20069;-80
2023/10/27 07:48:46;;;;;;;0.30;0.30;;;18.90;99.90;;;;;;4980698;28;20026;-76
2023/10/27 07:51:12;;;;;;;0.10;0.10;;;18.80;99.90;;;;;;4981206;28;20022;-80
2023/10/27 07:53:38;;;;;;;0.10;0.10;;;;;;;;;;4980440;28;20039;-75
2023/10/27 07:56:04;;;;;;;1.52;1.42;;;18.80;99.90;;;;;;4980932;28;20035;-79
2023/10/27 07:58:30;;;;;;;0.10;0.10;;;18.80;99.90;;;;;;4980526;28;20077;-78
2023/10/27 08:00:56;;;;;;;0.10;0.10;;;18.60;99.90;;;;;;4981078;28;20046;-81
2023/10/27 08:03:22;;;;;;;0.10;0.10;;;18.50;99.90;;;;;;4981246;28;20056;-81
2023/10/27 08:05:49;;;;;;;0.10;0.10;;;18.40;99.90;;;;;;4980030;28;20506;-77
2023/10/27 08:08:15;;;;;;;0.10;0.10;;;18.30;99.90;;;;;;4979044;28;20365;-75
2023/10/27 08:10:44;;;;;;;0.10;0.10;;;18.20;99.90;;;;;;4978438;28;20022;-81
2023/10/27 08:13:10;;;;;;;0.10;0.10;;;18.20;99.90;;;;;;4978447;28;20282;-75
2023/10/27 08:15:37;;;;;;;0.10;0.10;;;18.20;99.90;;;;;;4980933;28;20026;-76
2023/10/27 08:18:03;;;;;;;0.10;0.10;;;18.10;99.90;;;;;;4979836;28;20022;-85
2023/10/27 08:20:29;;;;;;;0.10;0.10;;;18.10;99.90;;;;;;4980250;28;20207;-76
2023/10/27 08:22:55;;;;;;;0.10;0.10;;;18.00;99.90;;;;;;4979538;28;20027;-75
2023/10/27 08:25:22;;;;;;;0.10;0.10;;;18.00;99.90;;;;;;4985220;28;20034;-75
2023/10/27 08:27:49;;;;;;;0.10;0.10;;;17.90;99.90;;;;;;4982782;28;20130;-75
2023/10/27 08:30:16;;;;;;;0.10;0.10;;;17.90;99.90;;;;;;4982058;28;20082;-75
2023/10/27 08:32:42;;;;;;;0.10;0.10;;;17.90;99.90;;;;;;4981704;28;20098;-85
2023/10/27 08:35:08;;;;;;;0.10;0.10;;;19.20;99.90;;;;;;4979480;28;20109;-76
2023/10/27 08:37:33;;;;;;;1.13;1.13;;;17.70;99.90;;;;;;4979139;28;20536;-75
2023/10/27 08:39:59;;;;;;;0.10;0.10;;;17.60;99.90;;;;;;4978239;28;20671;-75
2023/10/27 08:42:32;;;;;;;0.10;0.10;;;17.60;99.90;;;;;;4980850;28;20184;-80
2023/10/27 08:44:58;;;;;;;0.98;0.98;;;17.70;99.90;;;;;;4982184;28;20613;-75
2023/10/27 08:47:33;;;;;;;0.10;0.10;;;17.60;99.90;;;;;;4979507;28;20157;-75
2023/10/27 08:50:02;;;;;;;0.20;0.20;;;17.50;99.90;;;;;;4978004;28;20061;-75
2023/10/27 08:52:28;;;;;;;0.10;0.10;;;17.50;99.90;;;;;;4977541;28;20298;-85
2023/10/27 08:54:54;;;;;;;0.10;0.10;;;17.60;99.90;;;;;;4977937;28;20069;-77
2023/10/27 08:57:20;;;;;;;0.10;0.10;;;17.60;99.90;;;;;;4977541;28;20022;-76
2023/10/27 08:59:46;;;;;;;0.10;0.10;;;17.70;99.90;;;;;;4977721;28;20047;-75
2023/10/27 09:02:12;;;;;;;0.10;0.10;;;17.80;99.90;;;;;;4977803;28;20030;-75
2023/10/27 09:04:44;;;;;;;0.10;0.10;;;17.80;99.90;;;;;;4978067;28;20563;-76
2023/10/27 09:07:10;;;;;;;0.10;0.10;;;17.90;99.90;;;;;;4977742;28;20113;-74
2023/10/27 09:09:36;;;;;;;0.10;0.10;;;17.90;99.90;;;;;;4977868;28;20126;-74
2023/10/27 09:12:02;;;;;;;0.10;0.10;;;18.00;99.90;;;;;;4977678;28;20026;-75
2023/10/27 09:14:30;;;;;;;0.10;0.10;;;18.00;99.90;;;;;;4979815;28;20023;-75
2023/10/27 09:17:08;;;;;;;0.10;0.10;;;18.20;99.90;;;;;;4980371;28;20036;-75
2023/10/27 09:19:34;;;;;;;0.10;0.10;;;18.20;99.90;;;;;;4980579;28;20019;-77
2023/10/27 09:22:05;;;;;;;0.17;0.17;;;18.20;99.90;;;;;;4985422;28;20033;-77
2023/10/27 09:24:31;;;;;;;0.10;0.10;;;18.20;99.90;;;;;;4985247;28;20307;-77
2023/10/27 09:27:00;;;;;;;0.10;0.10;;;18.20;99.90;;;;;;4983145;28;20022;-79
2023/10/27 09:29:27;;;;;;;0.10;0.10;;;18.30;99.90;;;;;;4981680;28;20015;-75
2023/10/27 09:31:53;;;;;;;0.10;0.10;;;18.20;99.90;;;;;;4981459;28;20247;-79
2023/10/27 09:34:28;;;;;;;0.10;0.10;;;18.20;99.90;;;;;;4979925;28;20022;-84
2023/10/27 09:36:58;;;;;;;0.10;0.10;;;18.10;99.90;;;;;;4981999;28;20128;-77
2023/10/27 09:39:25;;;;;;;0.10;0.10;;;18.10;99.90;;;;;;4980419;28;20156;-74
2023/10/27 09:41:58;;;;;;;0.10;0.10;;;18.10;99.90;;;;;;4980802;28;20050;-74
2023/10/27 09:44:46;;;;;;;0.10;0.10;;;18.00;99.90;;;;;;4981517;28;20616;-80
2023/10/27 09:47:28;;;;;;;0.10;0.10;;;18.00;99.90;;;;;;4981936;28;20117;-76
2023/10/27 09:50:05;;;;;;;0.10;0.10;;;18.00;99.90;;;;;;4981480;28;20049;-77
2023/10/27 09:52:37;;;;;;;0.43;0.43;;;18.00;99.90;;;;;;4981121;28;20337;-85
2023/10/27 09:55:05;;;;;;;0.10;0.10;;;18.10;99.90;;;;;;4981721;28;20338;-74
2023/10/27 09:57:32;;;;;;;0.10;0.10;;;18.10;99.90;;;;;;4981377;28;20034;-80
2023/10/27 10:00:00;;;;;;;6.40;4.38;;;18.30;99.90;;;;;;4980027;28;20029;-74
2023/10/27 10:02:29;;;;;;;0.10;0.10;;;18.40;99.90;;;;;;4981298;28;20023;-82
2023/10/27 10:04:59;;;;;;;0.10;0.10;;;18.50;99.90;;;;;;4981125;28;20027;-75
2023/10/27 10:07:44;;;;;;;0.10;0.10;;;18.60;99.90;;;;;;4981135;28;20110;-76
2023/10/27 10:10:22;;;;;;;0.10;0.10;;;18.90;99.90;;;;;;4981303;28;20022;-82
2023/10/27 10:13:05;;;;;;;0.50;0.50;;;19.10;99.90;;;;;;4982192;28;20038;-83
2023/10/27 10:15:35;;;;;;;0.10;0.10;;;19.10;99.90;;;;;;4981710;28;20053;-79
2023/10/27 10:18:03;;;;;;;0.10;0.10;;;19.20;99.90;;;;;;4981225;28;20129;-77
2023/10/27 10:20:58;;;;;;;0.10;0.10;;;19.20;99.90;;;;;;4980980;28;20425;-76
2023/10/27 10:23:38;;;;;;;0.10;0.10;;;19.30;99.90;;;;;;4958951;28;20497;-74
2023/10/27 10:26:04;;;;;;;0.10;0.10;;;19.30;99.90;;;;;;4957990;28;20060;-78
2023/10/27 10:28:36;;;;;;;0.10;0.10;;;19.40;99.90;;;;;;4957906;28;20046;-75
2023/10/27 10:31:10;;;;;;;0.10;0.10;;;19.40;99.90;;;;;;4957966;28;20232;-80
2023/10/27 10:33:37;;;;;;;0.10;0.10;;;19.40;99.90;;;;;;4941488;28;20402;-79
2023/10/27 10:36:14;;;;;;;0.10;0.10;;;19.30;99.90;;;;;;4957758;28;20026;-76
2023/10/27 10:38:44;;;;;;;0.10;0.10;;;19.40;99.90;;;;;;4957881;28;20058;-75
2023/10/27 10:41:10;;;;;;;0.10;0.10;;;19.30;99.90;;;;;;4957912;28;20392;-77
2023/10/27 10:43:36;;;;;;;0.10;0.10;;;19.20;99.90;;;;;;4958126;28;20256;-77
2023/10/27 10:46:13;;;;;;;0.10;0.10;;;19.20;99.90;;;;;;4958151;28;20134;-90
2023/10/27 10:48:45;;;;;;;0.10;0.10;;;19.10;99.90;;;;;;4942596;28;20046;-88
2023/10/27 10:51:15;;;;;;;0.10;0.10;;;19.10;99.90;;;;;;4958280;28;20125;-78
2023/10/27 10:53:50;;;;;;;0.10;0.10;;;19.10;99.90;;;;;;4957587;28;20283;-79
2023/10/27 10:56:17;;;;;;;0.30;0.30;;;19.10;99.90;;;;;;4957495;28;20062;-86
2023/10/27 10:58:42;;;;;;;0.10;0.10;;;19.10;99.90;;;;;;4958786;28;20203;-77
2023/10/27 11:01:16;;;;;;;0.10;0.10;;;19.00;99.90;;;;;;4980445;28;20215;-84
2023/10/27 11:03:47;;;;;;;0.10;0.10;;;19.10;99.90;;;;;;4980313;28;20030;-75
2023/10/27 11:06:13;;;;;;;0.10;0.10;;;19.40;99.90;;;;;;4980718;28;20318;-78
2023/10/27 11:08:39;;;;;;;0.10;0.10;;;19.40;99.90;;;;;;4980259;28;20069;-75
2023/10/27 11:11:07;;;;;;;0.10;0.10;;;19.50;99.90;;;;;;4980424;28;20177;-76
2023/10/27 11:13:39;;;;;;;0.10;0.10;;;19.70;99.90;;;;;;4980287;28;20022;-75
2023/10/27 11:16:14;;;;;;;0.10;0.10;;;19.90;99.90;;;;;;4980308;28;20026;-75
2023/10/27 11:18:40;;;;;;;0.10;0.10;;;20.20;99.90;;;;;;4980155;28;20077;-74
2023/10/27 11:21:05;;;;;;;0.10;0.10;;;20.40;99.90;;;;;;4980341;28;20023;-75
2023/10/27 11:23:31;;;;;;;0.10;0.10;;;20.70;99.90;;;;;;4979912;28;20069;-74
2023/10/27 11:26:05;;;;;;;0.10;0.10;;;20.80;99.90;;;;;;4979923;28;20041;-81
2023/10/27 11:28:39;;;;;;;0.73;0.73;;;20.90;99.90;;;;;;4979058;28;20679;-75
2023/10/27 11:31:12;;;;;;;1.00;1.00;;;21.00;99.90;;;;;;4979759;28;20050;-83
2023/10/27 11:34:03;;;;;;;0.10;0.10;;;21.00;99.90;;;;;;4979351;28;20019;-75
2023/10/27 11:36:38;;;;;;;0.10;0.10;;;21.10;99.90;;;;;;4980263;28;20033;-75
2023/10/27 11:39:33;;;;;;;0.10;0.10;;;21.10;99.90;;;;;;4979268;28;20058;-75
2023/10/27 11:42:02;;;;;;;0.10;0.10;;;21.30;99.90;;;;;;4956184;28;20103;-76
2023/10/27 11:44:30;;;;;;;0.10;0.10;;;21.40;99.90;;;;;;4956499;28;20091;-76
2023/10/27 11:46:58;;;;;;;3.65;2.90;;;21.50;99.90;;;;;;4956901;28;20486;-75
2023/10/27 11:49:25;;;;;;;0.10;0.10;;;21.50;99.90;;;;;;4958182;28;20023;-75
2023/10/27 11:51:53;;;;;;;0.10;0.10;;;21.70;99.90;;;;;;4955858;28;20426;-78
2023/10/27 11:54:19;;;;;;;0.10;0.10;;;21.80;99.90;;;;;;4939729;28;20225;-76
2023/10/27 11:56:46;;;;;;;0.10;0.10;;;21.70;99.90;;;;;;4956455;28;20533;-76
2023/10/27 11:59:12;;;;;;;0.10;0.10;;;22.00;99.90;;;;;;4955972;28;20081;-76
2023/10/27 12:01:38;;;;;;;0.95;0.95;;;22.10;99.90;;;;;;4956334;28;20031;-77
2023/10/27 12:04:09;;;;;;;0.10;0.10;;;22.20;99.90;;;;;;4955890;28;20027;-75
2023/10/27 12:06:35;;;;;;;0.10;0.10;;;22.20;99.90;;;;;;4955817;28;20031;-76
2023/10/27 12:09:01;;;;;;;0.10;0.10;;;22.20;99.90;;;;;;4955915;28;20102;-80
2023/10/27 12:11:30;;;;;;;0.10;0.10;;;22.30;99.90;;;;;;4956330;28;20061;-81
2023/10/27 12:13:56;;;;;;;0.10;0.10;;;22.40;99.90;;;;;;4955918;28;20113;-75
2023/10/27 12:16:27;;;;;;;0.10;0.10;;;22.30;99.90;;;;;;4956474;28;20565;-79
2023/10/27 12:18:56;;;;;;;0.10;0.10;;;22.50;99.90;;;;;;4971593;28;20046;-76
2023/10/27 12:21:24;;;;;;;0.10;0.10;;;22.80;99.90;;;;;;4978535;28;20026;-75
2023/10/27 12:23:51;;;;;;;0.03;0.03;;;22.90;99.90;;;;;;4979146;28;20052;-76
2023/10/27 12:26:18;;;;;;;0.10;0.10;;;23.10;99.90;;;;;;4977587;28;20038;-76
2023/10/27 12:28:44;;;;;;;0.10;0.10;;;23.20;99.90;;;;;;4978906;28;20033;-76
2023/10/27 12:31:10;;;;;;;0.10;0.10;;;23.40;99.90;;;;;;4979325;28;20034;-79
2023/10/27 12:33:35;;;;;;;0.10;0.10;;;23.70;99.90;;;;;;4979082;28;20026;-78
2023/10/27 12:36:09;;;;;;;0.10;0.10;;;24.30;99.90;;;;;;4978513;28;20033;-80
2023/10/27 12:38:36;;;;;;;0.10;0.10;;;24.40;99.60;;;;;;4979618;28;20026;-75
2023/10/27 12:41:02;;;;;;;0.10;0.10;;;24.20;99.80;;;;;;4980662;28;20382;-75
2023/10/27 12:43:29;;;;;;;0.28;0.28;;;24.60;99.40;;;;;;4980240;28;20034;-78
2023/10/27 12:45:55;;;;;;;0.10;0.10;;;24.40;99.40;;;;;;4980226;28;20022;-76
2023/10/27 12:48:21;;;;;;;0.10;0.10;;;24.30;99.30;;;;;;4981269;28;20026;-78